Time;durP1;ratioP1;P1;durP2;ratioP2;P2;SDS_P1;SDS_P2;PMS_P1;PMS_P2;Temp;Humidity;BMP_temperature;BMP_pressure;BME280_temperature;BME280_humidity;BME280_pressure;Samples;Min_cycle;Max_cycle;Signal;HPM_P1;HPM_P2
2023/04/16 00:01:42;;;;;;;0.80;0.80;;;8.20;99.90;;;;;;5133723;27;20238;-78
2023/04/16 00:04:09;;;;;;;0.50;0.50;;;8.20;99.90;;;;;;5138207;27;20284;-79
2023/04/16 00:06:36;;;;;;;0.50;0.40;;;8.20;99.90;;;;;;5131602;27;20279;-78
2023/04/16 00:09:03;;;;;;;0.50;0.40;;;8.30;99.90;;;;;;5135194;27;20235;-80
2023/04/16 00:11:29;;;;;;;1.27;1.20;;;8.20;99.90;;;;;;5137882;27;20219;-80
2023/04/16 00:13:58;;;;;;;0.50;0.40;;;8.30;99.90;;;;;;5128161;27;20204;-79
2023/04/16 00:16:24;;;;;;;2.78;2.63;;;8.20;99.90;;;;;;5131988;27;20277;-80
2023/04/16 00:18:51;;;;;;;0.50;0.40;;;8.30;99.90;;;;;;5131172;27;20242;-80
2023/04/16 00:21:18;;;;;;;0.50;0.50;;;8.30;99.90;;;;;;5127647;27;20300;-79
2023/04/16 00:23:45;;;;;;;0.68;0.68;;;8.30;99.90;;;;;;5128006;27;20228;-79
2023/04/16 00:26:12;;;;;;;0.50;0.40;;;8.30;99.90;;;;;;5131331;27;20245;-80
2023/04/16 00:28:38;;;;;;;0.50;0.40;;;8.30;99.90;;;;;;5141685;27;20286;-80
2023/04/16 00:31:07;;;;;;;0.50;0.40;;;8.30;99.90;;;;;;5130040;27;20307;-79
2023/04/16 00:33:33;;;;;;;0.50;0.40;;;8.30;99.90;;;;;;5134723;27;20286;-80
2023/04/16 00:36:00;;;;;;;2.33;2.13;;;8.30;99.90;;;;;;5123197;27;20204;-79
2023/04/16 00:38:29;;;;;;;0.75;0.75;;;8.30;99.90;;;;;;5140324;27;20223;-79
2023/04/16 00:40:57;;;;;;;0.60;0.60;;;8.30;99.90;;;;;;5131656;27;20216;-77
2023/04/16 00:43:25;;;;;;;0.50;0.40;;;8.30;99.90;;;;;;5140670;27;20196;-79
2023/04/16 00:45:53;;;;;;;0.50;0.40;;;8.30;99.90;;;;;;5131792;27;20196;-80
2023/04/16 00:48:21;;;;;;;0.70;0.70;;;8.30;99.90;;;;;;5130959;27;20209;-78
2023/04/16 00:50:48;;;;;;;1.80;1.73;;;8.30;99.90;;;;;;5140309;27;20302;-80
2023/04/16 00:53:16;;;;;;;0.50;0.40;;;8.30;99.90;;;;;;5128551;27;20366;-79
2023/04/16 00:55:43;;;;;;;1.15;1.05;;;8.30;99.90;;;;;;5127702;27;20200;-80
2023/04/16 00:58:10;;;;;;;1.10;1.10;;;8.40;99.90;;;;;;5129344;27;20541;-80
2023/04/16 01:00:37;;;;;;;0.50;0.40;;;8.40;99.90;;;;;;5139541;27;20243;-80
2023/04/16 01:03:05;;;;;;;3.65;3.45;;;8.40;99.90;;;;;;5130724;27;20283;-80
2023/04/16 01:05:33;;;;;;;0.50;0.40;;;8.30;99.90;;;;;;5130297;27;20206;-79
2023/04/16 01:08:00;;;;;;;0.50;0.40;;;8.30;99.90;;;;;;5129640;27;20235;-79
2023/04/16 01:10:27;;;;;;;0.50;0.40;;;8.30;99.90;;;;;;5118044;28;20212;-80
2023/04/16 01:12:54;;;;;;;0.50;0.40;;;8.20;99.90;;;;;;5127455;27;20204;-80
2023/04/16 01:15:20;;;;;;;1.23;1.13;;;8.20;99.90;;;;;;5121041;27;20279;-79
2023/04/16 01:17:48;;;;;;;0.75;0.75;;;8.30;99.90;;;;;;5130593;27;20259;-79
2023/04/16 01:20:14;;;;;;;4.55;1.52;;;8.30;99.90;;;;;;5127750;27;20295;-80
2023/04/16 01:22:43;;;;;;;2.78;1.45;;;8.20;99.90;;;;;;5126504;27;20207;-79
2023/04/16 01:25:14;;;;;;;3.90;2.55;;;8.30;99.90;;;;;;5127531;27;20578;-79
2023/04/16 01:27:41;;;;;;;4.10;2.80;;;8.30;99.90;;;;;;5127891;27;20197;-79
2023/04/16 01:30:08;;;;;;;0.50;0.40;;;8.30;99.90;;;;;;5135645;27;20336;-76
2023/04/16 01:32:35;;;;;;;0.50;0.40;;;8.30;99.90;;;;;;5127576;27;20287;-80
2023/04/16 01:35:02;;;;;;;2.35;2.25;;;8.30;99.90;;;;;;5127326;27;20574;-80
2023/04/16 01:37:30;;;;;;;4.35;1.48;;;8.40;99.90;;;;;;5125722;27;20193;-79
2023/04/16 01:39:58;;;;;;;0.73;0.63;;;8.40;99.90;;;;;;5134802;27;20222;-80
2023/04/16 01:42:25;;;;;;;7.40;1.80;;;8.40;99.90;;;;;;5118532;27;20306;-80
2023/04/16 01:44:52;;;;;;;4.35;1.77;;;8.40;99.90;;;;;;5117670;28;20192;-80
2023/04/16 01:47:19;;;;;;;0.50;0.40;;;8.40;99.90;;;;;;5126839;27;20239;-76
2023/04/16 01:49:47;;;;;;;13.82;5.65;;;8.40;99.90;;;;;;5124112;27;20701;-80
2023/04/16 01:52:13;;;;;;;1.13;0.80;;;8.40;99.90;;;;;;5127401;27;20241;-79
2023/04/16 01:54:40;;;;;;;0.50;0.50;;;8.40;99.90;;;;;;5125992;27;20280;-80
2023/04/16 01:57:08;;;;;;;0.50;0.40;;;8.40;99.90;;;;;;5126964;27;20268;-79
2023/04/16 01:59:35;;;;;;;0.68;0.68;;;8.40;99.90;;;;;;5129578;27;20291;-80
2023/04/16 02:02:09;;;;;;;0.50;0.50;;;8.40;99.90;;;;;;5120503;28;20258;-79
2023/04/16 02:04:36;;;;;;;0.68;0.68;;;8.40;99.90;;;;;;5132953;27;20200;-79
2023/04/16 02:07:03;;;;;;;2.25;2.15;;;8.40;99.90;;;;;;5132602;27;20199;-78
2023/04/16 02:09:30;;;;;;;0.70;0.70;;;8.40;99.90;;;;;;5123719;28;20275;-79
2023/04/16 02:11:57;;;;;;;0.50;0.40;;;8.50;99.90;;;;;;5131942;27;20298;-79
2023/04/16 02:14:25;;;;;;;1.60;0.85;;;8.50;99.90;;;;;;5126648;28;20259;-79
2023/04/16 02:16:52;;;;;;;0.50;0.40;;;8.50;99.90;;;;;;5128337;28;20220;-79
2023/04/16 02:19:19;;;;;;;5.15;4.57;;;8.50;99.90;;;;;;5123918;28;20283;-79
2023/04/16 02:21:45;;;;;;;2.75;1.85;;;8.50;99.90;;;;;;5131475;27;20275;-80
2023/04/16 02:24:12;;;;;;;0.50;0.40;;;8.50;99.90;;;;;;5121420;27;20188;-80
2023/04/16 02:26:39;;;;;;;14.13;3.35;;;8.50;99.90;;;;;;5128194;27;20196;-79
2023/04/16 02:29:06;;;;;;;0.50;0.40;;;8.60;99.90;;;;;;5129227;27;20202;-79
2023/04/16 02:31:34;;;;;;;0.50;0.40;;;8.60;99.90;;;;;;5132035;27;20275;-79
2023/04/16 02:34:02;;;;;;;0.70;0.70;;;8.60;99.90;;;;;;5131690;27;20256;-77
2023/04/16 02:36:30;;;;;;;0.50;0.40;;;8.50;99.90;;;;;;5127863;27;20256;-77
2023/04/16 02:38:57;;;;;;;1.35;1.35;;;8.50;99.90;;;;;;5128551;27;20575;-79
2023/04/16 02:41:23;;;;;;;1.50;1.40;;;8.50;99.90;;;;;;5136221;27;20691;-79
2023/04/16 02:43:50;;;;;;;0.50;0.40;;;8.60;99.90;;;;;;5135768;27;20192;-80
2023/04/16 02:46:17;;;;;;;2.25;2.15;;;8.60;99.90;;;;;;5123222;27;20275;-76
2023/04/16 02:48:45;;;;;;;0.50;0.40;;;8.60;99.90;;;;;;5131813;27;20196;-80
2023/04/16 02:51:12;;;;;;;0.50;0.40;;;8.50;99.90;;;;;;5129704;27;20265;-79
2023/04/16 02:53:39;;;;;;;0.50;0.40;;;8.50;99.90;;;;;;5128496;27;20199;-79
2023/04/16 02:56:07;;;;;;;0.50;0.50;;;8.50;99.90;;;;;;5129274;27;20193;-79
2023/04/16 02:58:34;;;;;;;0.60;0.60;;;8.50;99.90;;;;;;5132089;27;20188;-79
2023/04/16 03:01:00;;;;;;;3.25;2.35;;;8.50;99.90;;;;;;5132691;27;20209;-79
2023/04/16 03:03:27;;;;;;;3.08;2.85;;;8.50;99.90;;;;;;5130844;27;20259;-79
2023/04/16 03:05:55;;;;;;;0.50;0.40;;;8.50;99.90;;;;;;5131756;27;20231;-79
2023/04/16 03:08:22;;;;;;;4.00;1.75;;;8.50;99.90;;;;;;5131145;27;20234;-77
2023/04/16 03:10:49;;;;;;;1.15;1.15;;;8.50;99.90;;;;;;5132265;27;20280;-79
2023/04/16 03:13:16;;;;;;;1.00;1.00;;;8.50;99.90;;;;;;5129858;27;20196;-78
2023/04/16 03:15:48;;;;;;;1.30;1.20;;;8.50;99.90;;;;;;5127940;27;20626;-79
2023/04/16 03:18:15;;;;;;;1.35;1.35;;;8.60;99.90;;;;;;5119174;28;20242;-79
2023/04/16 03:20:42;;;;;;;0.50;0.40;;;8.60;99.90;;;;;;5132769;27;20207;-78
2023/04/16 03:23:10;;;;;;;0.50;0.50;;;8.60;99.90;;;;;;5131056;27;20192;-78
2023/04/16 03:25:39;;;;;;;0.50;0.40;;;8.60;99.90;;;;;;5130930;27;20195;-78
2023/04/16 03:28:06;;;;;;;0.82;0.73;;;8.60;99.90;;;;;;5130421;27;20283;-78
2023/04/16 03:30:32;;;;;;;0.65;0.65;;;8.60;99.90;;;;;;5118654;28;20651;-79
2023/04/16 03:33:00;;;;;;;3.22;1.73;;;8.60;99.90;;;;;;5126624;27;20216;-79
2023/04/16 03:35:26;;;;;;;1.95;1.85;;;8.60;99.90;;;;;;5135580;27;20648;-79
2023/04/16 03:37:53;;;;;;;2.25;2.15;;;8.60;99.90;;;;;;5118590;28;20199;-79
2023/04/16 03:40:21;;;;;;;0.50;0.40;;;8.70;99.90;;;;;;5126272;27;20754;-79
2023/04/16 03:42:48;;;;;;;0.50;0.40;;;8.70;99.90;;;;;;5125144;27;20283;-79
2023/04/16 03:45:15;;;;;;;1.52;1.45;;;8.70;99.90;;;;;;5121888;27;20193;-77
2023/04/16 03:47:42;;;;;;;0.60;0.55;;;8.70;99.90;;;;;;5130523;27;20551;-79
2023/04/16 03:50:10;;;;;;;1.40;1.30;;;8.70;99.90;;;;;;5121162;27;20251;-76
2023/04/16 03:52:37;;;;;;;0.50;0.40;;;8.80;99.90;;;;;;5130001;27;20208;-79
2023/04/16 03:55:04;;;;;;;1.83;1.73;;;8.80;99.90;;;;;;5130158;27;20221;-79
2023/04/16 03:57:32;;;;;;;0.80;0.60;;;8.70;99.90;;;;;;5126460;27;20235;-79
2023/04/16 03:59:59;;;;;;;0.50;0.40;;;8.70;99.90;;;;;;5127056;27;20272;-79
2023/04/16 04:02:26;;;;;;;1.55;1.45;;;8.70;99.90;;;;;;5137456;27;20712;-79
2023/04/16 04:04:53;;;;;;;0.50;0.40;;;8.70;99.90;;;;;;5123391;27;20260;-79
2023/04/16 04:07:20;;;;;;;0.50;0.40;;;8.80;99.90;;;;;;5135778;27;20290;-77
2023/04/16 04:09:46;;;;;;;0.95;0.93;;;8.80;99.90;;;;;;5124417;27;20299;-79
2023/04/16 04:12:13;;;;;;;0.50;0.40;;;8.80;99.90;;;;;;5125738;27;20219;-78
2023/04/16 04:14:42;;;;;;;0.50;0.40;;;8.80;99.90;;;;;;5122761;27;20192;-79
2023/04/16 04:17:09;;;;;;;0.50;0.40;;;8.80;99.90;;;;;;5120475;27;20188;-78
2023/04/16 04:19:36;;;;;;;0.50;0.40;;;8.80;99.90;;;;;;5126104;27;20299;-79
2023/04/16 04:22:03;;;;;;;0.50;0.40;;;8.80;99.90;;;;;;5125947;27;20280;-79
2023/04/16 04:24:30;;;;;;;0.50;0.40;;;8.80;99.90;;;;;;5125870;27;20678;-79
2023/04/16 04:26:57;;;;;;;0.50;0.40;;;8.80;99.90;;;;;;5124162;27;20191;-79
2023/04/16 04:29:24;;;;;;;2.58;2.55;;;8.80;99.90;;;;;;5138495;27;20212;-79
2023/04/16 04:31:53;;;;;;;0.50;0.40;;;8.80;99.90;;;;;;5137793;27;20271;-79
2023/04/16 04:34:20;;;;;;;0.50;0.40;;;8.80;99.90;;;;;;5128654;27;20196;-79
2023/04/16 04:36:47;;;;;;;0.50;0.40;;;8.90;99.90;;;;;;5136161;27;20192;-81
2023/04/16 04:39:14;;;;;;;1.48;1.42;;;8.90;99.90;;;;;;5136139;27;20638;-80
2023/04/16 04:41:41;;;;;;;0.50;0.40;;;8.90;99.90;;;;;;5136794;27;20223;-79
2023/04/16 04:44:08;;;;;;;0.50;0.40;;;8.90;99.90;;;;;;5136729;27;20283;-79
2023/04/16 04:46:34;;;;;;;0.50;0.40;;;8.90;99.90;;;;;;5119262;27;20259;-79
2023/04/16 04:49:03;;;;;;;0.50;0.40;;;8.90;99.90;;;;;;5127910;27;20192;-81
2023/04/16 04:51:30;;;;;;;4.30;3.33;;;8.90;99.90;;;;;;5127665;27;20224;-80
2023/04/16 04:53:57;;;;;;;3.63;3.42;;;8.90;99.90;;;;;;5130026;27;20288;-79
2023/04/16 04:56:23;;;;;;;0.50;0.40;;;8.90;99.90;;;;;;5134903;27;20283;-80
2023/04/16 04:58:51;;;;;;;0.50;0.40;;;8.90;99.90;;;;;;5121864;27;20304;-79
2023/04/16 05:01:17;;;;;;;0.75;0.75;;;8.90;99.90;;;;;;5124970;27;20280;-81
2023/04/16 05:03:44;;;;;;;0.65;0.63;;;8.90;99.90;;;;;;5127931;27;20275;-81
2023/04/16 05:06:12;;;;;;;0.93;0.90;;;8.90;99.90;;;;;;5127482;27;20650;-78
2023/04/16 05:08:39;;;;;;;0.95;0.95;;;8.90;99.90;;;;;;5123657;27;20189;-80
2023/04/16 05:11:06;;;;;;;8.77;0.98;;;8.90;99.90;;;;;;5115578;28;20304;-80
2023/04/16 05:13:33;;;;;;;0.50;0.40;;;8.90;99.90;;;;;;5123102;27;20227;-77
2023/04/16 05:16:00;;;;;;;0.50;0.40;;;8.90;99.90;;;;;;5129644;27;20737;-81
2023/04/16 05:18:26;;;;;;;0.50;0.40;;;8.90;99.90;;;;;;5132852;27;20203;-80
2023/04/16 05:20:53;;;;;;;0.50;0.30;;;8.90;99.90;;;;;;5115178;28;20698;-80
2023/04/16 05:23:22;;;;;;;0.50;0.40;;;8.90;99.90;;;;;;5124463;27;20290;-81
2023/04/16 05:25:48;;;;;;;1.88;1.77;;;8.90;99.90;;;;;;5122086;27;20643;-80
2023/04/16 05:28:15;;;;;;;3.15;1.85;;;8.90;99.90;;;;;;5123011;27;20295;-79
2023/04/16 05:30:42;;;;;;;2.88;1.73;;;8.90;99.90;;;;;;5123142;27;20251;-80
2023/04/16 05:33:09;;;;;;;0.60;0.50;;;8.90;99.90;;;;;;5123082;27;20632;-80
2023/04/16 05:35:35;;;;;;;2.70;2.58;;;8.90;99.90;;;;;;5115158;28;20196;-79
2023/04/16 05:38:03;;;;;;;3.90;3.60;;;8.90;99.90;;;;;;5122266;27;20192;-78
2023/04/16 05:40:31;;;;;;;0.50;0.40;;;9.00;99.90;;;;;;5132545;27;20311;-79
2023/04/16 05:42:58;;;;;;;0.50;0.40;;;8.90;99.90;;;;;;5123136;27;20196;-80
2023/04/16 05:45:25;;;;;;;0.63;0.63;;;9.00;99.90;;;;;;5116066;27;20287;-80
2023/04/16 05:47:52;;;;;;;2.10;1.95;;;9.00;99.90;;;;;;5130053;27;20198;-80
2023/04/16 05:50:18;;;;;;;3.22;2.47;;;9.00;99.90;;;;;;5131262;27;20738;-79
2023/04/16 05:52:45;;;;;;;2.47;1.95;;;9.00;99.90;;;;;;5123307;27;20208;-80
2023/04/16 05:55:12;;;;;;;0.50;0.40;;;9.00;99.90;;;;;;5123255;27;20612;-79
2023/04/16 05:57:40;;;;;;;4.10;3.70;;;9.10;99.90;;;;;;5122299;27;20200;-80
2023/04/16 06:00:08;;;;;;;1.08;1.08;;;9.20;99.90;;;;;;5121974;28;20215;-79
2023/04/16 06:02:35;;;;;;;2.38;1.85;;;9.20;99.90;;;;;;5126094;27;20188;-80
2023/04/16 06:05:02;;;;;;;0.50;0.40;;;9.20;99.90;;;;;;5119467;28;20201;-79
2023/04/16 06:07:28;;;;;;;0.50;0.40;;;9.20;99.90;;;;;;5115779;28;20287;-80
2023/04/16 06:09:55;;;;;;;0.50;0.40;;;9.20;99.90;;;;;;5120509;28;20327;-80
2023/04/16 06:12:22;;;;;;;0.50;0.40;;;9.20;99.90;;;;;;5131476;28;20215;-79
2023/04/16 06:14:50;;;;;;;2.17;2.08;;;9.20;99.90;;;;;;5118760;28;20685;-79
2023/04/16 06:17:18;;;;;;;0.50;0.40;;;9.20;99.90;;;;;;5125488;28;20196;-79
2023/04/16 06:19:45;;;;;;;0.50;0.40;;;9.20;99.90;;;;;;5130736;27;20216;-80
2023/04/16 06:22:11;;;;;;;0.50;0.40;;;9.20;99.90;;;;;;5122399;28;20271;-80
2023/04/16 06:24:38;;;;;;;0.50;0.40;;;9.20;99.90;;;;;;5122428;27;20218;-79
2023/04/16 06:27:05;;;;;;;1.20;1.20;;;9.20;99.90;;;;;;5129254;28;20278;-79
2023/04/16 06:29:32;;;;;;;0.50;0.40;;;9.30;99.90;;;;;;5115021;28;20650;-79
2023/04/16 06:32:00;;;;;;;0.55;0.52;;;9.30;99.90;;;;;;5128546;28;20287;-80
2023/04/16 06:34:28;;;;;;;0.50;0.50;;;9.30;99.90;;;;;;5133716;27;20689;-79
2023/04/16 06:36:55;;;;;;;0.50;0.40;;;9.30;99.90;;;;;;5120283;27;20193;-80
2023/04/16 06:39:22;;;;;;;0.63;0.63;;;9.30;99.90;;;;;;5130554;28;20577;-80
2023/04/16 06:41:49;;;;;;;0.50;0.40;;;9.10;99.90;;;;;;5118626;28;20271;-80
2023/04/16 06:44:15;;;;;;;0.50;0.40;;;9.10;99.90;;;;;;5134607;28;20532;-78
2023/04/16 06:46:42;;;;;;;2.15;2.05;;;9.10;99.90;;;;;;5109059;28;20711;-79
2023/04/16 06:49:11;;;;;;;0.60;0.50;;;9.20;99.90;;;;;;5126768;28;20197;-77
2023/04/16 06:51:37;;;;;;;3.25;2.30;;;9.30;99.90;;;;;;5125884;28;20196;-79
2023/04/16 06:54:05;;;;;;;0.50;0.40;;;9.30;99.90;;;;;;5134397;28;20198;-80
2023/04/16 06:56:32;;;;;;;0.50;0.40;;;9.30;99.90;;;;;;5123058;28;20231;-78
2023/04/16 06:58:59;;;;;;;0.50;0.40;;;9.30;99.90;;;;;;5119933;28;20710;-80
2023/04/16 07:01:26;;;;;;;4.95;3.15;;;9.40;99.90;;;;;;5125238;28;20458;-80
2023/04/16 07:03:54;;;;;;;1.95;1.85;;;9.40;99.90;;;;;;5133982;28;20228;-80
2023/04/16 07:06:22;;;;;;;0.50;0.40;;;9.40;99.90;;;;;;5125559;28;20196;-79
2023/04/16 07:08:49;;;;;;;0.50;0.40;;;9.40;99.90;;;;;;5119401;27;20654;-81
2023/04/16 07:11:16;;;;;;;0.50;0.40;;;9.40;99.90;;;;;;5128862;27;20698;-81
2023/04/16 07:13:43;;;;;;;1.77;1.70;;;9.30;99.90;;;;;;5118962;27;20211;-81
2023/04/16 07:16:09;;;;;;;0.57;0.40;;;9.30;99.90;;;;;;5134122;27;20189;-80
2023/04/16 07:18:36;;;;;;;1.20;1.10;;;9.40;99.90;;;;;;5128005;27;20224;-80
2023/04/16 07:21:04;;;;;;;3.47;3.38;;;9.50;99.90;;;;;;5131857;27;20212;-81
2023/04/16 07:23:32;;;;;;;0.50;0.40;;;9.50;99.90;;;;;;5136228;27;20198;-80
2023/04/16 07:25:59;;;;;;;1.85;1.67;;;9.60;99.90;;;;;;5123525;27;20192;-79
2023/04/16 07:28:26;;;;;;;0.50;0.40;;;9.70;99.90;;;;;;5119852;27;20200;-80
2023/04/16 07:30:53;;;;;;;0.65;0.65;;;9.80;99.90;;;;;;5126023;27;20651;-81
2023/04/16 07:33:20;;;;;;;1.35;1.35;;;9.90;99.90;;;;;;5125895;27;20219;-79
2023/04/16 07:35:46;;;;;;;0.50;0.40;;;10.00;99.90;;;;;;5125951;27;20279;-80
2023/04/16 07:38:13;;;;;;;1.23;1.23;;;10.10;99.90;;;;;;5126360;27;20196;-80
2023/04/16 07:40:42;;;;;;;2.25;2.15;;;10.20;99.90;;;;;;5117676;28;20393;-79
2023/04/16 07:43:09;;;;;;;2.00;1.90;;;10.30;99.90;;;;;;5117583;28;20639;-80
2023/04/16 07:45:36;;;;;;;0.50;0.40;;;10.30;99.90;;;;;;5128206;27;20224;-80
2023/04/16 07:48:03;;;;;;;0.98;0.98;;;10.20;99.90;;;;;;5137716;27;20231;-80
2023/04/16 07:50:29;;;;;;;0.50;0.40;;;10.40;99.90;;;;;;5128895;27;20212;-80
2023/04/16 07:52:56;;;;;;;1.65;1.55;;;10.50;99.90;;;;;;5132884;27;20215;-80
2023/04/16 07:55:23;;;;;;;2.88;2.78;;;10.50;99.90;;;;;;5125745;27;20742;-80
2023/04/16 07:57:51;;;;;;;0.50;0.40;;;10.60;99.90;;;;;;5125471;27;20192;-80
2023/04/16 08:00:18;;;;;;;1.23;1.17;;;10.60;99.90;;;;;;5125611;27;20247;-81
2023/04/16 08:02:45;;;;;;;3.63;3.35;;;10.70;99.90;;;;;;5125672;27;20273;-80
2023/04/16 08:05:12;;;;;;;5.32;5.07;;;10.80;99.90;;;;;;5117058;28;20192;-81
2023/04/16 08:07:39;;;;;;;6.00;5.30;;;10.90;99.90;;;;;;5119762;27;20192;-81
2023/04/16 08:10:07;;;;;;;7.82;2.42;;;11.00;99.90;;;;;;5130925;27;20299;-80
2023/04/16 08:12:34;;;;;;;0.50;0.30;;;11.10;99.90;;;;;;5127279;27;20527;-80
2023/04/16 08:15:02;;;;;;;0.77;0.77;;;11.10;99.90;;;;;;5131518;27;20189;-80
2023/04/16 08:17:29;;;;;;;1.67;1.58;;;11.20;99.90;;;;;;5124794;27;20676;-81
2023/04/16 08:19:56;;;;;;;0.50;0.40;;;11.40;99.90;;;;;;5121952;27;20212;-81
2023/04/16 08:22:23;;;;;;;3.10;1.35;;;11.40;99.90;;;;;;5137453;27;20184;-80
2023/04/16 08:24:50;;;;;;;1.02;1.02;;;11.60;99.90;;;;;;5124820;27;20193;-81
2023/04/16 08:27:17;;;;;;;0.50;0.40;;;11.80;99.90;;;;;;5125098;27;20660;-80
2023/04/16 08:29:43;;;;;;;0.50;0.40;;;12.10;99.90;;;;;;5125376;27;20232;-81
2023/04/16 08:32:12;;;;;;;0.50;0.30;;;12.30;99.90;;;;;;5116858;28;20224;-81
2023/04/16 08:34:39;;;;;;;0.50;0.40;;;12.40;99.90;;;;;;5118271;27;20533;-80
2023/04/16 08:37:06;;;;;;;0.50;0.50;;;12.40;99.90;;;;;;5128843;27;20256;-81
2023/04/16 08:39:34;;;;;;;0.63;0.63;;;12.30;99.90;;;;;;5118523;27;20493;-81
2023/04/16 08:42:02;;;;;;;1.53;0.90;;;12.40;99.90;;;;;;5130717;27;20434;-80
2023/04/16 08:44:32;;;;;;;3.60;2.33;;;12.40;99.90;;;;;;5128813;27;20473;-79
2023/04/16 08:47:00;;;;;;;0.50;0.40;;;12.40;99.90;;;;;;5121132;27;20929;-81
2023/04/16 08:49:29;;;;;;;0.50;0.40;;;12.40;99.90;;;;;;5137317;27;20516;-81
2023/04/16 08:51:57;;;;;;;0.87;0.80;;;12.20;99.90;;;;;;5117697;28;20441;-80
2023/04/16 08:54:46;;;;;;;0.50;0.40;;;12.30;99.90;;;;;;5125941;27;20477;-80
2023/04/16 08:57:18;;;;;;;0.50;0.45;;;12.30;99.90;;;;;;5133263;27;20271;-82
2023/04/16 08:59:46;;;;;;;0.50;0.43;;;12.30;99.90;;;;;;5120841;27;20302;-81
2023/04/16 09:02:14;;;;;;;0.50;0.37;;;12.50;99.90;;;;;;5139033;27;20459;-81
2023/04/16 09:04:43;;;;;;;1.00;1.00;;;12.60;99.90;;;;;;5118980;27;20438;-80
2023/04/16 09:07:10;;;;;;;0.50;0.40;;;12.60;99.90;;;;;;5132301;27;20520;-79
2023/04/16 09:09:38;;;;;;;0.50;0.50;;;12.60;99.90;;;;;;5118506;27;20465;-80
2023/04/16 09:12:06;;;;;;;0.50;0.40;;;12.60;99.90;;;;;;5125743;27;20438;-81
2023/04/16 09:14:32;;;;;;;1.50;1.00;;;12.60;99.90;;;;;;5134831;27;20813;-81
2023/04/16 09:17:01;;;;;;;2.20;2.10;;;12.50;99.90;;;;;;5129534;27;20509;-81
2023/04/16 09:19:28;;;;;;;1.83;1.73;;;12.50;99.90;;;;;;5128862;27;20937;-81
2023/04/16 09:21:56;;;;;;;7.40;6.70;;;12.40;99.90;;;;;;5133345;27;20465;-80
2023/04/16 09:24:23;;;;;;;1.03;1.03;;;12.50;99.90;;;;;;5125060;27;20430;-81
2023/04/16 09:26:52;;;;;;;0.50;0.50;;;12.60;99.90;;;;;;5128746;27;20521;-81
2023/04/16 09:29:34;;;;;;;1.10;1.10;;;12.70;99.90;;;;;;5137641;27;20441;-80
2023/04/16 09:32:03;;;;;;;0.50;0.40;;;13.10;99.90;;;;;;5118604;27;20899;-80
2023/04/16 09:34:31;;;;;;;3.00;2.87;;;13.60;99.90;;;;;;5126109;27;20481;-80
2023/04/16 09:37:14;;;;;;;0.60;0.50;;;13.80;99.90;;;;;;5126768;27;20503;-82
2023/04/16 09:39:42;;;;;;;7.40;2.40;;;14.10;99.90;;;;;;5119251;27;20458;-80
2023/04/16 09:42:09;;;;;;;0.50;0.50;;;14.50;99.90;;;;;;5131282;27;20439;-80
2023/04/16 09:44:36;;;;;;;0.50;0.50;;;14.60;99.90;;;;;;5125455;27;20438;-80
2023/04/16 09:47:06;;;;;;;1.70;1.60;;;14.90;99.90;;;;;;5116398;28;20445;-81
2023/04/16 09:49:34;;;;;;;0.50;0.40;;;15.30;99.90;;;;;;5125305;27;20453;-81
2023/04/16 09:52:12;;;;;;;0.50;0.40;;;15.40;99.90;;;;;;5136288;27;20467;-80
2023/04/16 09:54:41;;;;;;;0.70;0.70;;;15.50;99.90;;;;;;5127618;27;20461;-80
2023/04/16 09:57:08;;;;;;;0.50;0.40;;;15.40;99.90;;;;;;5128617;27;20426;-80
2023/04/16 09:59:36;;;;;;;1.43;0.90;;;15.30;99.90;;;;;;5136572;27;20535;-81
2023/04/16 10:02:03;;;;;;;0.50;0.40;;;15.10;99.90;;;;;;5122939;27;20449;-80
2023/04/16 10:04:30;;;;;;;4.10;2.00;;;14.90;99.90;;;;;;5132894;27;20430;-80
2023/04/16 10:07:06;;;;;;;0.80;0.80;;;14.80;99.90;;;;;;5123985;28;20516;-80
2023/04/16 10:09:36;;;;;;;0.50;0.40;;;14.80;99.90;;;;;;5132360;28;20482;-80
2023/04/16 10:12:03;;;;;;;1.23;1.13;;;15.00;99.90;;;;;;5130848;28;20437;-80
2023/04/16 10:14:30;;;;;;;0.50;0.30;;;14.90;99.90;;;;;;5114824;28;20840;-79
2023/04/16 10:16:58;;;;;;;1.00;0.70;;;15.00;99.90;;;;;;5123101;28;20461;-80
2023/04/16 10:19:25;;;;;;;1.37;1.27;;;15.20;99.90;;;;;;5114937;28;20470;-81
2023/04/16 10:21:52;;;;;;;0.60;0.60;;;15.20;99.90;;;;;;5126242;28;20517;-80
2023/04/16 10:24:20;;;;;;;2.73;2.53;;;15.20;99.90;;;;;;5128769;27;20438;-79
2023/04/16 10:26:48;;;;;;;2.30;1.60;;;15.20;99.90;;;;;;5131815;28;20524;-81
2023/04/16 10:29:15;;;;;;;1.47;1.30;;;15.10;99.90;;;;;;5123663;27;20521;-81
2023/04/16 10:31:42;;;;;;;1.07;1.07;;;14.80;99.90;;;;;;5116554;28;20446;-81
2023/04/16 10:34:10;;;;;;;1.23;1.23;;;14.80;99.90;;;;;;5127052;28;20552;-81
2023/04/16 10:36:38;;;;;;;0.50;0.40;;;14.80;99.90;;;;;;5126796;28;20438;-80
2023/04/16 10:39:10;;;;;;;0.50;0.43;;;14.90;99.90;;;;;;5130602;28;20530;-80
2023/04/16 10:41:38;;;;;;;0.70;0.70;;;15.00;99.90;;;;;;5124761;28;20441;-80
2023/04/16 10:44:08;;;;;;;0.50;0.30;;;15.30;99.90;;;;;;5130955;27;20865;-79
2023/04/16 10:46:37;;;;;;;0.50;0.40;;;15.40;99.90;;;;;;5130251;27;20433;-81
2023/04/16 10:49:14;;;;;;;0.50;0.40;;;15.40;99.90;;;;;;5130827;27;20548;-81
2023/04/16 10:51:41;;;;;;;0.50;0.30;;;15.60;99.90;;;;;;5120692;27;20440;-81
2023/04/16 10:54:21;;;;;;;0.50;0.30;;;15.70;99.90;;;;;;5123810;27;20483;-80
2023/04/16 10:56:50;;;;;;;0.50;0.30;;;15.60;99.90;;;;;;5130958;27;20510;-80
2023/04/16 10:59:19;;;;;;;0.50;0.30;;;15.60;99.90;;;;;;5132462;27;20439;-80
2023/04/16 11:01:47;;;;;;;0.50;0.40;;;15.90;99.90;;;;;;5127232;27;20883;-80
2023/04/16 11:04:34;;;;;;;0.60;0.50;;;16.30;99.90;;;;;;5132747;27;20460;-80
2023/04/16 11:07:02;;;;;;;3.60;2.80;;;16.10;99.90;;;;;;5115436;27;20432;-80
2023/04/16 11:09:53;;;;;;;0.50;0.30;;;15.90;99.90;;;;;;5130553;27;20441;-82
2023/04/16 11:12:22;;;;;;;0.50;0.30;;;15.60;99.90;;;;;;5123950;27;20860;-80
2023/04/16 11:14:51;;;;;;;0.60;0.60;;;15.50;99.90;;;;;;5118267;28;20925;-80
2023/04/16 11:17:18;;;;;;;1.80;1.70;;;15.40;99.90;;;;;;5118480;28;20848;-81
2023/04/16 11:19:46;;;;;;;0.50;0.40;;;15.20;99.90;;;;;;5135248;27;20468;-80
2023/04/16 11:22:15;;;;;;;0.60;0.60;;;15.30;99.90;;;;;;5123903;27;20439;-81
2023/04/16 11:24:43;;;;;;;1.27;1.23;;;15.60;99.90;;;;;;5138315;27;20438;-81
2023/04/16 11:27:12;;;;;;;0.50;0.40;;;15.80;99.90;;;;;;5124490;27;20778;-80
2023/04/16 11:29:41;;;;;;;0.50;0.30;;;16.30;99.90;;;;;;5126992;27;20545;-79
2023/04/16 11:32:08;;;;;;;0.50;0.30;;;16.60;99.90;;;;;;5123026;28;20447;-79
2023/04/16 11:34:35;;;;;;;0.53;0.40;;;16.80;99.90;;;;;;5133244;27;20547;-78
2023/04/16 11:37:01;;;;;;;0.80;0.80;;;17.40;99.90;;;;;;5139726;27;20454;-80
2023/04/16 11:39:28;;;;;;;4.50;4.20;;;17.80;99.90;;;;;;5125335;27;20691;-80
2023/04/16 11:41:55;;;;;;;1.97;1.80;;;18.20;99.90;;;;;;5138104;27;20468;-81
2023/04/16 11:44:24;;;;;;;0.70;0.70;;;18.10;99.90;;;;;;5137989;27;20508;-80
2023/04/16 11:46:53;;;;;;;0.50;0.40;;;17.90;99.90;;;;;;5118365;27;20439;-80
2023/04/16 11:49:27;;;;;;;0.90;0.50;;;17.70;99.90;;;;;;5124356;27;20812;-81
2023/04/16 11:51:55;;;;;;;0.50;0.40;;;17.00;99.90;;;;;;5118564;27;20442;-79
2023/04/16 11:54:23;;;;;;;1.57;0.97;;;16.60;99.90;;;;;;5125406;27;20506;-81
2023/04/16 11:56:52;;;;;;;0.50;0.40;;;16.20;99.90;;;;;;5125736;27;20435;-80
2023/04/16 11:59:21;;;;;;;0.60;0.40;;;16.20;99.90;;;;;;5116983;28;20438;-81
2023/04/16 12:01:50;;;;;;;1.57;1.47;;;16.20;99.90;;;;;;5125644;27;20443;-80
2023/04/16 12:04:20;;;;;;;0.50;0.40;;;16.60;99.90;;;;;;5117342;28;20426;-79
2023/04/16 12:07:06;;;;;;;0.50;0.30;;;16.90;99.90;;;;;;5135661;27;20442;-81
2023/04/16 12:09:35;;;;;;;4.73;1.07;;;17.00;99.90;;;;;;5137711;27;20453;-80
2023/04/16 12:12:02;;;;;;;3.03;2.53;;;16.80;99.90;;;;;;5136964;27;20441;-81
2023/04/16 12:14:29;;;;;;;4.10;1.03;;;16.80;99.90;;;;;;5121191;27;20480;-81
2023/04/16 12:16:56;;;;;;;0.50;0.40;;;16.60;99.90;;;;;;5117020;28;20439;-81
2023/04/16 12:19:24;;;;;;;0.70;0.60;;;16.40;99.90;;;;;;5125455;27;21103;-80
2023/04/16 12:21:51;;;;;;;0.60;0.40;;;16.60;99.90;;;;;;5125087;27;20462;-80
2023/04/16 12:24:21;;;;;;;10.63;1.77;;;16.90;99.90;;;;;;5131224;27;20853;-81
2023/04/16 12:26:54;;;;;;;2.50;1.30;;;17.10;99.90;;;;;;5127330;27;20437;-80
2023/04/16 12:29:22;;;;;;;0.50;0.43;;;17.10;99.90;;;;;;5123085;27;20437;-81
2023/04/16 12:31:51;;;;;;;0.50;0.40;;;16.60;99.90;;;;;;5126888;27;20445;-80
2023/04/16 12:34:18;;;;;;;2.30;1.23;;;16.40;99.90;;;;;;5125262;27;20470;-82
2023/04/16 12:36:48;;;;;;;0.50;0.40;;;16.10;99.90;;;;;;5124734;27;20804;-80
2023/04/16 12:39:16;;;;;;;0.50;0.30;;;15.80;99.90;;;;;;5130247;27;20430;-80
2023/04/16 12:41:43;;;;;;;0.50;0.40;;;15.60;99.90;;;;;;5128078;27;20524;-80
2023/04/16 12:44:11;;;;;;;0.60;0.50;;;15.60;99.90;;;;;;5137771;27;20537;-80
2023/04/16 12:46:39;;;;;;;0.50;0.40;;;15.50;99.90;;;;;;5119474;27;20438;-81
2023/04/16 12:49:06;;;;;;;2.70;2.60;;;15.50;99.90;;;;;;5123905;27;20443;-80
2023/04/16 12:51:33;;;;;;;1.20;1.20;;;15.50;99.90;;;;;;5132600;27;20463;-80
2023/04/16 12:54:03;;;;;;;0.50;0.43;;;15.40;99.90;;;;;;5125051;27;20513;-80
2023/04/16 12:56:31;;;;;;;3.60;1.83;;;15.10;99.90;;;;;;5123817;27;20799;-81